sensor_id;sensor_type;location;lat;lon;timestamp;temperature;humidity
13713;DHT22;6928;50.546;7.120;2023-03-11T00:00:40;2.18;79.58
13713;DHT22;6928;50.546;7.120;2023-03-11T00:03:09;2.16;79.15
13713;DHT22;6928;50.546;7.120;2023-03-11T00:05:40;2.23;78.88
13713;DHT22;6928;50.546;7.120;2023-03-11T00:08:12;2.26;78.15
13713;DHT22;6928;50.546;7.120;2023-03-11T00:10:41;2.26;78.40
13713;DHT22;6928;50.546;7.120;2023-03-11T00:13:11;2.26;78.52
13713;DHT22;6928;50.546;7.120;2023-03-11T00:15:44;2.25;78.03
13713;DHT22;6928;50.546;7.120;2023-03-11T00:18:12;2.26;77.85
13713;DHT22;6928;50.546;7.120;2023-03-11T00:20:44;2.21;77.31
13713;DHT22;6928;50.546;7.120;2023-03-11T00:23:12;2.23;77.43
13713;DHT22;6928;50.546;7.120;2023-03-11T00:25:41;2.28;77.38
13713;DHT22;6928;50.546;7.120;2023-03-11T00:28:08;2.29;77.73
13713;DHT22;6928;50.546;7.120;2023-03-11T00:30:36;2.26;77.86
13713;DHT22;6928;50.546;7.120;2023-03-11T00:33:04;2.21;77.62
13713;DHT22;6928;50.546;7.120;2023-03-11T00:35:32;2.26;77.41
13713;DHT22;6928;50.546;7.120;2023-03-11T00:38:04;2.25;77.33
13713;DHT22;6928;50.546;7.120;2023-03-11T00:40:33;2.28;77.33
13713;DHT22;6928;50.546;7.120;2023-03-11T00:43:01;2.32;77.46
13713;DHT22;6928;50.546;7.120;2023-03-11T00:45:28;2.25;77.15
13713;DHT22;6928;50.546;7.120;2023-03-11T00:47:55;2.29;77.21
13713;DHT22;6928;50.546;7.120;2023-03-11T00:50:25;2.26;77.02
13713;DHT22;6928;50.546;7.120;2023-03-11T00:52:52;2.25;76.78
13713;DHT22;6928;50.546;7.120;2023-03-11T00:55:23;2.26;77.23
13713;DHT22;6928;50.546;7.120;2023-03-11T00:57:52;2.26;77.31
13713;DHT22;6928;50.546;7.120;2023-03-11T01:00:22;2.28;77.14
13713;DHT22;6928;50.546;7.120;2023-03-11T01:02:50;2.23;77.16
13713;DHT22;6928;50.546;7.120;2023-03-11T01:05:19;2.22;77.26
13713;DHT22;6928;50.546;7.120;2023-03-11T01:07:46;2.22;77.34
13713;DHT22;6928;50.546;7.120;2023-03-11T01:10:14;2.22;76.87
13713;DHT22;6928;50.546;7.120;2023-03-11T01:12:43;2.23;76.69
13713;DHT22;6928;50.546;7.120;2023-03-11T01:15:16;2.25;76.90
13713;DHT22;6928;50.546;7.120;2023-03-11T01:17:44;2.13;76.83
13713;DHT22;6928;50.546;7.120;2023-03-11T01:20:12;2.21;77.49
13713;DHT22;6928;50.546;7.120;2023-03-11T01:22:39;2.15;77.08
13713;DHT22;6928;50.546;7.120;2023-03-11T01:25:07;2.18;77.05
13713;DHT22;6928;50.546;7.120;2023-03-11T01:27:35;2.16;76.57
13713;DHT22;6928;50.546;7.120;2023-03-11T01:30:04;2.23;76.82
13713;DHT22;6928;50.546;7.120;2023-03-11T01:32:31;2.23;77.43
13713;DHT22;6928;50.546;7.120;2023-03-11T01:34:58;2.25;77.44
13713;DHT22;6928;50.546;7.120;2023-03-11T01:37:25;2.19;76.80
13713;DHT22;6928;50.546;7.120;2023-03-11T01:39:52;2.25;77.27
13713;DHT22;6928;50.546;7.120;2023-03-11T01:42:19;2.16;76.50
13713;DHT22;6928;50.546;7.120;2023-03-11T01:44:46;2.18;76.52
13713;DHT22;6928;50.546;7.120;2023-03-11T01:47:37;2.18;76.36
13713;DHT22;6928;50.546;7.120;2023-03-11T01:50:08;2.22;76.73
13713;DHT22;6928;50.546;7.120;2023-03-11T01:52:37;2.21;76.49
13713;DHT22;6928;50.546;7.120;2023-03-11T01:55:07;2.19;75.85
13713;DHT22;6928;50.546;7.120;2023-03-11T01:57:36;2.22;75.88
13713;DHT22;6928;50.546;7.120;2023-03-11T02:00:10;2.21;76.18
13713;DHT22;6928;50.546;7.120;2023-03-11T02:02:45;2.21;75.41
13713;DHT22;6928;50.546;7.120;2023-03-11T02:05:13;2.26;75.65
13713;DHT22;6928;50.546;7.120;2023-03-11T02:07:40;2.28;75.55
13713;DHT22;6928;50.546;7.120;2023-03-11T02:10:10;2.26;74.86
13713;DHT22;6928;50.546;7.120;2023-03-11T02:12:38;2.28;75.55
13713;DHT22;6928;50.546;7.120;2023-03-11T02:15:07;2.25;75.35
13713;DHT22;6928;50.546;7.120;2023-03-11T02:17:36;2.22;74.58
13713;DHT22;6928;50.546;7.120;2023-03-11T02:20:29;2.21;74.92
13713;DHT22;6928;50.546;7.120;2023-03-11T02:22:59;2.23;75.28
13713;DHT22;6928;50.546;7.120;2023-03-11T02:25:33;2.32;75.38
13713;DHT22;6928;50.546;7.120;2023-03-11T02:28:06;2.26;74.41
13713;DHT22;6928;50.546;7.120;2023-03-11T02:30:35;2.22;74.79
13713;DHT22;6928;50.546;7.120;2023-03-11T02:33:02;2.26;74.02
13713;DHT22;6928;50.546;7.120;2023-03-11T02:35:29;2.19;73.69
13713;DHT22;6928;50.546;7.120;2023-03-11T02:37:56;2.21;73.85
13713;DHT22;6928;50.546;7.120;2023-03-11T02:40:43;2.21;73.85
13713;DHT22;6928;50.546;7.120;2023-03-11T02:43:16;2.22;73.71
13713;DHT22;6928;50.546;7.120;2023-03-11T02:45:44;2.21;73.46
13713;DHT22;6928;50.546;7.120;2023-03-11T02:48:13;2.19;73.51
13713;DHT22;6928;50.546;7.120;2023-03-11T02:50:41;2.18;73.55
13713;DHT22;6928;50.546;7.120;2023-03-11T02:53:09;2.18;72.90
13713;DHT22;6928;50.546;7.120;2023-03-11T02:55:36;2.18;72.39
13713;DHT22;6928;50.546;7.120;2023-03-11T02:58:02;2.12;72.53
13713;DHT22;6928;50.546;7.120;2023-03-11T03:00:31;2.15;72.51
13713;DHT22;6928;50.546;7.120;2023-03-11T03:02:59;2.15;73.08
13713;DHT22;6928;50.546;7.120;2023-03-11T03:05:26;2.12;72.63
13713;DHT22;6928;50.546;7.120;2023-03-11T03:07:52;2.21;73.40
13713;DHT22;6928;50.546;7.120;2023-03-11T03:10:21;2.15;72.20
13713;DHT22;6928;50.546;7.120;2023-03-11T03:12:48;2.12;72.43
13713;DHT22;6928;50.546;7.120;2023-03-11T03:15:15;2.09;72.95
13713;DHT22;6928;50.546;7.120;2023-03-11T03:17:43;2.08;72.55
13713;DHT22;6928;50.546;7.120;2023-03-11T03:20:12;2.06;72.83
13713;DHT22;6928;50.546;7.120;2023-03-11T03:22:40;2.01;72.21
13713;DHT22;6928;50.546;7.120;2023-03-11T03:25:08;1.99;72.37
13713;DHT22;6928;50.546;7.120;2023-03-11T03:27:36;1.98;72.08
13713;DHT22;6928;50.546;7.120;2023-03-11T03:30:05;1.92;72.41
13713;DHT22;6928;50.546;7.120;2023-03-11T03:32:33;1.87;72.39
13713;DHT22;6928;50.546;7.120;2023-03-11T03:35:01;1.87;72.54
13713;DHT22;6928;50.546;7.120;2023-03-11T03:37:31;1.87;72.39
13713;DHT22;6928;50.546;7.120;2023-03-11T03:39:58;1.85;72.94
13713;DHT22;6928;50.546;7.120;2023-03-11T03:42:27;1.77;72.70
13713;DHT22;6928;50.546;7.120;2023-03-11T03:44:54;1.71;72.81
13713;DHT22;6928;50.546;7.120;2023-03-11T03:47:21;1.71;72.59
13713;DHT22;6928;50.546;7.120;2023-03-11T03:49:48;1.70;72.66
13713;DHT22;6928;50.546;7.120;2023-03-11T03:52:16;1.67;72.47
13713;DHT22;6928;50.546;7.120;2023-03-11T03:54:43;1.70;72.76
13713;DHT22;6928;50.546;7.120;2023-03-11T03:57:10;1.60;72.60
13713;DHT22;6928;50.546;7.120;2023-03-11T03:59:37;1.57;72.79
13713;DHT22;6928;50.546;7.120;2023-03-11T04:02:04;1.59;73.21
13713;DHT22;6928;50.546;7.120;2023-03-11T04:04:31;1.59;72.44
13713;DHT22;6928;50.546;7.120;2023-03-11T04:06:58;1.49;72.58
13713;DHT22;6928;50.546;7.120;2023-03-11T04:09:26;1.50;72.69
13713;DHT22;6928;50.546;7.120;2023-03-11T04:11:53;1.49;72.94
13713;DHT22;6928;50.546;7.120;2023-03-11T04:14:20;1.36;73.61
13713;DHT22;6928;50.546;7.120;2023-03-11T04:16:47;1.32;73.35
13713;DHT22;6928;50.546;7.120;2023-03-11T04:19:14;1.36;73.46
13713;DHT22;6928;50.546;7.120;2023-03-11T04:21:40;1.42;73.94
13713;DHT22;6928;50.546;7.120;2023-03-11T04:24:08;1.33;74.26
13713;DHT22;6928;50.546;7.120;2023-03-11T04:26:36;1.28;74.10
13713;DHT22;6928;50.546;7.120;2023-03-11T04:29:03;1.28;74.14
13713;DHT22;6928;50.546;7.120;2023-03-11T04:31:30;1.21;73.97
13713;DHT22;6928;50.546;7.120;2023-03-11T04:33:56;1.23;74.30
13713;DHT22;6928;50.546;7.120;2023-03-11T04:36:23;1.18;74.36
13713;DHT22;6928;50.546;7.120;2023-03-11T04:38:50;1.13;74.84
13713;DHT22;6928;50.546;7.120;2023-03-11T04:41:17;1.02;74.91
13713;DHT22;6928;50.546;7.120;2023-03-11T04:43:45;1.06;75.19
13713;DHT22;6928;50.546;7.120;2023-03-11T04:46:12;1.03;74.87
13713;DHT22;6928;50.546;7.120;2023-03-11T04:48:39;1.02;74.60
13713;DHT22;6928;50.546;7.120;2023-03-11T04:51:06;1.06;74.44
13713;DHT22;6928;50.546;7.120;2023-03-11T04:53:33;1.03;74.36
13713;DHT22;6928;50.546;7.120;2023-03-11T04:56:00;0.98;74.80
13713;DHT22;6928;50.546;7.120;2023-03-11T04:58:27;1.03;74.46
13713;DHT22;6928;50.546;7.120;2023-03-11T05:00:55;1.03;74.51
13713;DHT22;6928;50.546;7.120;2023-03-11T05:03:22;1.05;74.69
13713;DHT22;6928;50.546;7.120;2023-03-11T05:05:49;0.92;75.28
13713;DHT22;6928;50.546;7.120;2023-03-11T05:08:17;0.88;75.30
13713;DHT22;6928;50.546;7.120;2023-03-11T05:10:44;1.64;79.02
13713;DHT22;6928;50.546;7.120;2023-03-11T05:13:11;0.95;75.37
13713;DHT22;6928;50.546;7.120;2023-03-11T05:15:38;0.80;75.50
13713;DHT22;6928;50.546;7.120;2023-03-11T05:18:06;0.84;75.73
13713;DHT22;6928;50.546;7.120;2023-03-11T05:20:33;0.80;75.76
13713;DHT22;6928;50.546;7.120;2023-03-11T05:23:00;0.92;75.45
13713;DHT22;6928;50.546;7.120;2023-03-11T05:25:26;0.85;75.50
13713;DHT22;6928;50.546;7.120;2023-03-11T05:27:53;0.71;76.08
13713;DHT22;6928;50.546;7.120;2023-03-11T05:30:20;0.87;76.37
13713;DHT22;6928;50.546;7.120;2023-03-11T05:32:47;0.71;75.97
13713;DHT22;6928;50.546;7.120;2023-03-11T05:35:16;0.58;76.06
13713;DHT22;6928;50.546;7.120;2023-03-11T05:37:43;0.70;76.03
13713;DHT22;6928;50.546;7.120;2023-03-11T05:40:11;0.77;75.71
13713;DHT22;6928;50.546;7.120;2023-03-11T05:42:38;2.54;82.17
13713;DHT22;6928;50.546;7.120;2023-03-11T05:45:07;1.01;75.21
13713;DHT22;6928;50.546;7.120;2023-03-11T05:47:34;0.82;75.56
13713;DHT22;6928;50.546;7.120;2023-03-11T05:50:01;0.73;75.45
13713;DHT22;6928;50.546;7.120;2023-03-11T05:52:29;0.74;75.83
13713;DHT22;6928;50.546;7.120;2023-03-11T05:54:58;0.74;75.58
13713;DHT22;6928;50.546;7.120;2023-03-11T05:57:25;0.60;76.51
13713;DHT22;6928;50.546;7.120;2023-03-11T05:59:52;0.53;76.49
13713;DHT22;6928;50.546;7.120;2023-03-11T06:02:19;0.61;76.50
13713;DHT22;6928;50.546;7.120;2023-03-11T06:04:47;0.53;76.81
13713;DHT22;6928;50.546;7.120;2023-03-11T06:07:14;0.58;76.35
13713;DHT22;6928;50.546;7.120;2023-03-11T06:09:43;0.56;76.58
13713;DHT22;6928;50.546;7.120;2023-03-11T06:12:10;0.50;76.50
13713;DHT22;6928;50.546;7.120;2023-03-11T06:14:37;0.52;76.53
13713;DHT22;6928;50.546;7.120;2023-03-11T06:17:04;0.46;76.82
13713;DHT22;6928;50.546;7.120;2023-03-11T06:19:31;0.46;76.93
13713;DHT22;6928;50.546;7.120;2023-03-11T06:21:58;0.34;77.33
13713;DHT22;6928;50.546;7.120;2023-03-11T06:24:25;0.46;77.12
13713;DHT22;6928;50.546;7.120;2023-03-11T06:26:53;0.60;76.51
13713;DHT22;6928;50.546;7.120;2023-03-11T06:29:20;0.61;76.71
13713;DHT22;6928;50.546;7.120;2023-03-11T06:31:54;1.08;76.77
13713;DHT22;6928;50.546;7.120;2023-03-11T06:34:21;0.88;76.12
13713;DHT22;6928;50.546;7.120;2023-03-11T06:36:49;0.95;75.74
13713;DHT22;6928;50.546;7.120;2023-03-11T06:39:16;0.99;75.44
13713;DHT22;6928;50.546;7.120;2023-03-11T06:41:43;1.08;75.43
13713;DHT22;6928;50.546;7.120;2023-03-11T06:44:11;1.22;74.49
13713;DHT22;6928;50.546;7.120;2023-03-11T06:46:38;1.38;74.10
13713;DHT22;6928;50.546;7.120;2023-03-11T06:49:05;1.52;73.54
13713;DHT22;6928;50.546;7.120;2023-03-11T06:51:33;1.71;72.90
13713;DHT22;6928;50.546;7.120;2023-03-11T06:54:00;1.92;72.33
13713;DHT22;6928;50.546;7.120;2023-03-11T06:56:27;1.71;72.40
13713;DHT22;6928;50.546;7.120;2023-03-11T06:58:54;1.64;72.71
13713;DHT22;6928;50.546;7.120;2023-03-11T07:01:24;1.54;73.41
13713;DHT22;6928;50.546;7.120;2023-03-11T07:03:52;1.56;73.17
13713;DHT22;6928;50.546;7.120;2023-03-11T07:06:21;1.57;73.31
13713;DHT22;6928;50.546;7.120;2023-03-11T07:08:50;1.57;73.41
13713;DHT22;6928;50.546;7.120;2023-03-11T07:11:20;1.63;73.20
13713;DHT22;6928;50.546;7.120;2023-03-11T07:13:47;1.80;73.85
13713;DHT22;6928;50.546;7.120;2023-03-11T07:16:15;1.83;73.22
13713;DHT22;6928;50.546;7.120;2023-03-11T07:18:45;1.70;72.78
13713;DHT22;6928;50.546;7.120;2023-03-11T07:21:14;1.74;72.57
13713;DHT22;6928;50.546;7.120;2023-03-11T07:23:42;1.74;72.25
13713;DHT22;6928;50.546;7.120;2023-03-11T07:26:09;1.81;72.30
13713;DHT22;6928;50.546;7.120;2023-03-11T07:28:37;1.88;72.68
13713;DHT22;6928;50.546;7.120;2023-03-11T07:31:08;1.83;72.66
13713;DHT22;6928;50.546;7.120;2023-03-11T07:33:35;1.90;72.59
13713;DHT22;6928;50.546;7.120;2023-03-11T07:36:10;1.91;72.37
13713;DHT22;6928;50.546;7.120;2023-03-11T07:38:38;1.85;71.99
13713;DHT22;6928;50.546;7.120;2023-03-11T07:41:06;1.87;72.49
13713;DHT22;6928;50.546;7.120;2023-03-11T07:43:33;1.90;72.52
13713;DHT22;6928;50.546;7.120;2023-03-11T07:46:06;1.85;72.19
13713;DHT22;6928;50.546;7.120;2023-03-11T07:48:35;1.80;71.92
13713;DHT22;6928;50.546;7.120;2023-03-11T07:51:05;1.92;72.05
13713;DHT22;6928;50.546;7.120;2023-03-11T07:53:34;1.98;72.03
13713;DHT22;6928;50.546;7.120;2023-03-11T07:56:04;2.01;72.31
13713;DHT22;6928;50.546;7.120;2023-03-11T07:58:31;2.09;72.05
13713;DHT22;6928;50.546;7.120;2023-03-11T08:01:03;2.11;71.81
13713;DHT22;6928;50.546;7.120;2023-03-11T08:03:31;2.19;72.06
13713;DHT22;6928;50.546;7.120;2023-03-11T08:05:58;2.15;71.74
13713;DHT22;6928;50.546;7.120;2023-03-11T08:08:26;2.23;71.02
13713;DHT22;6928;50.546;7.120;2023-03-11T08:10:55;2.38;71.06
13713;DHT22;6928;50.546;7.120;2023-03-11T08:13:21;2.56;70.91
13713;DHT22;6928;50.546;7.120;2023-03-11T08:15:48;2.42;70.83
13713;DHT22;6928;50.546;7.120;2023-03-11T08:18:15;2.60;70.15
13713;DHT22;6928;50.546;7.120;2023-03-11T08:20:42;2.70;70.65
13713;DHT22;6928;50.546;7.120;2023-03-11T08:23:10;2.76;70.62
13713;DHT22;6928;50.546;7.120;2023-03-11T08:25:38;2.88;69.49
13713;DHT22;6928;50.546;7.120;2023-03-11T08:28:07;3.09;69.78
13713;DHT22;6928;50.546;7.120;2023-03-11T08:30:35;2.98;69.21
13713;DHT22;6928;50.546;7.120;2023-03-11T08:33:02;3.09;68.89
13713;DHT22;6928;50.546;7.120;2023-03-11T08:35:30;3.12;68.69
13713;DHT22;6928;50.546;7.120;2023-03-11T08:37:57;3.25;68.15
13713;DHT22;6928;50.546;7.120;2023-03-11T08:40:24;3.36;69.10
13713;DHT22;6928;50.546;7.120;2023-03-11T08:42:50;3.45;68.32
13713;DHT22;6928;50.546;7.120;2023-03-11T08:45:19;3.39;67.46
13713;DHT22;6928;50.546;7.120;2023-03-11T08:47:46;3.38;67.63
13713;DHT22;6928;50.546;7.120;2023-03-11T08:50:16;3.42;68.02
13713;DHT22;6928;50.546;7.120;2023-03-11T08:52:43;3.32;67.28
13713;DHT22;6928;50.546;7.120;2023-03-11T08:55:12;3.14;68.16
13713;DHT22;6928;50.546;7.120;2023-03-11T08:57:39;3.29;67.12
13713;DHT22;6928;50.546;7.120;2023-03-11T09:00:09;3.31;67.48
13713;DHT22;6928;50.546;7.120;2023-03-11T09:02:37;3.29;67.08
13713;DHT22;6928;50.546;7.120;2023-03-11T09:05:06;3.35;67.01
13713;DHT22;6928;50.546;7.120;2023-03-11T09:07:33;3.41;66.87
13713;DHT22;6928;50.546;7.120;2023-03-11T09:10:00;3.36;65.79
13713;DHT22;6928;50.546;7.120;2023-03-11T09:12:27;3.53;65.91
13713;DHT22;6928;50.546;7.120;2023-03-11T09:14:54;3.35;64.98
13713;DHT22;6928;50.546;7.120;2023-03-11T09:17:21;3.66;66.06
13713;DHT22;6928;50.546;7.120;2023-03-11T09:19:50;4.07;65.15
13713;DHT22;6928;50.546;7.120;2023-03-11T09:22:17;3.69;66.21
13713;DHT22;6928;50.546;7.120;2023-03-11T09:24:43;3.70;66.76
13713;DHT22;6928;50.546;7.120;2023-03-11T09:27:10;3.86;65.22
13713;DHT22;6928;50.546;7.120;2023-03-11T09:29:38;4.05;64.26
13713;DHT22;6928;50.546;7.120;2023-03-11T09:32:05;4.10;63.62
13713;DHT22;6928;50.546;7.120;2023-03-11T09:34:32;3.67;63.95
13713;DHT22;6928;50.546;7.120;2023-03-11T09:37:01;4.31;63.76
13713;DHT22;6928;50.546;7.120;2023-03-11T09:39:28;3.84;62.38
13713;DHT22;6928;50.546;7.120;2023-03-11T09:41:57;3.70;62.31
13713;DHT22;6928;50.546;7.120;2023-03-11T09:44:29;4.20;62.33
13713;DHT22;6928;50.546;7.120;2023-03-11T09:47:14;4.21;62.01
13713;DHT22;6928;50.546;7.120;2023-03-11T09:50:19;4.24;58.83
13713;DHT22;6928;50.546;7.120;2023-03-11T09:53:01;4.44;56.69
13713;DHT22;6928;50.546;7.120;2023-03-11T09:55:37;4.29;55.87
13713;DHT22;6928;50.546;7.120;2023-03-11T09:58:12;3.67;55.61
13713;DHT22;6928;50.546;7.120;2023-03-11T10:00:40;3.79;53.43
13713;DHT22;6928;50.546;7.120;2023-03-11T10:03:28;4.07;55.94
13713;DHT22;6928;50.546;7.120;2023-03-11T10:06:05;4.35;57.49
13713;DHT22;6928;50.546;7.120;2023-03-11T10:08:41;4.00;58.52
13713;DHT22;6928;50.546;7.120;2023-03-11T10:11:28;3.84;59.03
13713;DHT22;6928;50.546;7.120;2023-03-11T10:14:10;4.17;59.25
13713;DHT22;6928;50.546;7.120;2023-03-11T10:16:45;4.44;58.72
13713;DHT22;6928;50.546;7.120;2023-03-11T10:19:27;4.56;59.45
13713;DHT22;6928;50.546;7.120;2023-03-11T10:22:05;4.32;57.51
13713;DHT22;6928;50.546;7.120;2023-03-11T10:24:53;4.15;58.66
13713;DHT22;6928;50.546;7.120;2023-03-11T10:27:28;4.35;58.91
13713;DHT22;6928;50.546;7.120;2023-03-11T10:30:02;4.22;59.35
13713;DHT22;6928;50.546;7.120;2023-03-11T10:32:36;4.22;59.02
13713;DHT22;6928;50.546;7.120;2023-03-11T10:35:16;4.05;59.15
13713;DHT22;6928;50.546;7.120;2023-03-11T10:37:50;4.33;60.08
13713;DHT22;6928;50.546;7.120;2023-03-11T10:40:28;4.31;59.83
13713;DHT22;6928;50.546;7.120;2023-03-11T10:42:58;4.22;59.45
13713;DHT22;6928;50.546;7.120;2023-03-11T10:45:28;4.21;58.96
13713;DHT22;6928;50.546;7.120;2023-03-11T10:47:58;4.45;58.71
13713;DHT22;6928;50.546;7.120;2023-03-11T10:50:25;4.79;58.00
13713;DHT22;6928;50.546;7.120;2023-03-11T10:53:08;4.84;58.76
13713;DHT22;6928;50.546;7.120;2023-03-11T10:55:45;4.55;56.92
13713;DHT22;6928;50.546;7.120;2023-03-11T10:58:15;4.51;56.73
13713;DHT22;6928;50.546;7.120;2023-03-11T11:00:42;5.24;56.28
13713;DHT22;6928;50.546;7.120;2023-03-11T11:03:20;5.70;55.39
13713;DHT22;6928;50.546;7.120;2023-03-11T11:06:00;4.99;54.53
13713;DHT22;6928;50.546;7.120;2023-03-11T11:08:27;5.62;55.79
13713;DHT22;6928;50.546;7.120;2023-03-11T11:10:58;4.90;55.44
13713;DHT22;6928;50.546;7.120;2023-03-11T11:13:27;4.62;55.85
13713;DHT22;6928;50.546;7.120;2023-03-11T11:15:59;4.90;54.40
13713;DHT22;6928;50.546;7.120;2023-03-11T11:18:30;4.58;54.82
13713;DHT22;6928;50.546;7.120;2023-03-11T11:21:01;4.51;55.33
13713;DHT22;6928;50.546;7.120;2023-03-11T11:23:37;4.75;56.00
13713;DHT22;6928;50.546;7.120;2023-03-11T11:26:13;4.66;55.77
13713;DHT22;6928;50.546;7.120;2023-03-11T11:28:41;4.46;55.17
13713;DHT22;6928;50.546;7.120;2023-03-11T11:31:21;4.77;55.61
13713;DHT22;6928;50.546;7.120;2023-03-11T11:33:51;4.84;56.43
13713;DHT22;6928;50.546;7.120;2023-03-11T11:36:21;4.70;55.86
13713;DHT22;6928;50.546;7.120;2023-03-11T11:38:51;4.72;56.64
13713;DHT22;6928;50.546;7.120;2023-03-11T11:41:22;4.56;55.09
13713;DHT22;6928;50.546;7.120;2023-03-11T11:43:52;5.00;55.02
13713;DHT22;6928;50.546;7.120;2023-03-11T11:46:25;4.96;55.44
13713;DHT22;6928;50.546;7.120;2023-03-11T11:49:07;4.93;54.78
13713;DHT22;6928;50.546;7.120;2023-03-11T11:51:41;5.12;54.34
13713;DHT22;6928;50.546;7.120;2023-03-11T11:54:15;5.83;54.50
13713;DHT22;6928;50.546;7.120;2023-03-11T11:56:45;5.07;52.66
13713;DHT22;6928;50.546;7.120;2023-03-11T11:59:16;4.97;53.08
13713;DHT22;6928;50.546;7.120;2023-03-11T12:01:55;5.15;52.73
13713;DHT22;6928;50.546;7.120;2023-03-11T12:04:37;5.14;52.50
13713;DHT22;6928;50.546;7.120;2023-03-11T12:07:30;4.90;53.72
13713;DHT22;6928;50.546;7.120;2023-03-11T12:10:08;5.12;54.10
13713;DHT22;6928;50.546;7.120;2023-03-11T12:12:45;5.10;52.46
13713;DHT22;6928;50.546;7.120;2023-03-11T12:15:19;4.70;51.46
13713;DHT22;6928;50.546;7.120;2023-03-11T12:17:48;5.07;53.08
13713;DHT22;6928;50.546;7.120;2023-03-11T12:20:24;5.14;53.77
13713;DHT22;6928;50.546;7.120;2023-03-11T12:23:35;5.04;54.47
13713;DHT22;6928;50.546;7.120;2023-03-11T12:26:15;5.07;54.34
13713;DHT22;6928;50.546;7.120;2023-03-11T12:28:50;5.89;53.27
13713;DHT22;6928;50.546;7.120;2023-03-11T12:31:20;5.20;54.34
13713;DHT22;6928;50.546;7.120;2023-03-11T12:33:53;5.11;54.54
13713;DHT22;6928;50.546;7.120;2023-03-11T12:36:24;5.24;55.39
13713;DHT22;6928;50.546;7.120;2023-03-11T12:38:52;5.12;55.34
13713;DHT22;6928;50.546;7.120;2023-03-11T12:41:29;5.49;54.66
13713;DHT22;6928;50.546;7.120;2023-03-11T12:44:04;5.59;54.10
13713;DHT22;6928;50.546;7.120;2023-03-11T12:47:21;5.11;53.79
13713;DHT22;6928;50.546;7.120;2023-03-11T12:49:49;5.63;54.07
13713;DHT22;6928;50.546;7.120;2023-03-11T12:52:28;5.38;53.80
13713;DHT22;6928;50.546;7.120;2023-03-11T12:55:32;5.27;54.00
13713;DHT22;6928;50.546;7.120;2023-03-11T12:58:51;5.61;54.36
13713;DHT22;6928;50.546;7.120;2023-03-11T13:01:45;5.63;54.55
13713;DHT22;6928;50.546;7.120;2023-03-11T13:04:26;5.49;53.55
13713;DHT22;6928;50.546;7.120;2023-03-11T13:07:36;5.65;53.87
13713;DHT22;6928;50.546;7.120;2023-03-11T13:10:32;5.76;53.35
13713;DHT22;6928;50.546;7.120;2023-03-11T13:13:00;5.49;54.20
13713;DHT22;6928;50.546;7.120;2023-03-11T13:15:36;5.34;53.28
13713;DHT22;6928;50.546;7.120;2023-03-11T13:18:16;5.45;52.82
13713;DHT22;6928;50.546;7.120;2023-03-11T13:20:54;5.22;53.77
13713;DHT22;6928;50.546;7.120;2023-03-11T13:23:28;5.21;54.13
13713;DHT22;6928;50.546;7.120;2023-03-11T13:29:29;5.24;53.71
13713;DHT22;6928;50.546;7.120;2023-03-11T13:32:27;5.27;53.32
13713;DHT22;6928;50.546;7.120;2023-03-11T13:35:10;5.31;53.52
13713;DHT22;6928;50.546;7.120;2023-03-11T13:37:45;5.27;52.65
13713;DHT22;6928;50.546;7.120;2023-03-11T13:40:29;5.48;53.41
13713;DHT22;6928;50.546;7.120;2023-03-11T13:43:00;5.41;53.06
13713;DHT22;6928;50.546;7.120;2023-03-11T13:45:30;5.63;52.98
13713;DHT22;6928;50.546;7.120;2023-03-11T13:48:02;5.30;51.55
13713;DHT22;6928;50.546;7.120;2023-03-11T13:50:34;5.46;52.55
13713;DHT22;6928;50.546;7.120;2023-03-11T13:53:07;5.68;53.03
13713;DHT22;6928;50.546;7.120;2023-03-11T13:55:38;5.63;52.05
13713;DHT22;6928;50.546;7.120;2023-03-11T13:58:14;5.56;51.89
13713;DHT22;6928;50.546;7.120;2023-03-11T14:00:47;5.66;52.24
13713;DHT22;6928;50.546;7.120;2023-03-11T14:03:15;5.87;51.71
13713;DHT22;6928;50.546;7.120;2023-03-11T14:05:49;5.86;51.37
13713;DHT22;6928;50.546;7.120;2023-03-11T14:08:25;5.78;52.28
13713;DHT22;6928;50.546;7.120;2023-03-11T14:10:54;5.63;52.22
13713;DHT22;6928;50.546;7.120;2023-03-11T14:13:24;5.72;52.64
13713;DHT22;6928;50.546;7.120;2023-03-11T14:15:59;5.99;52.78
13713;DHT22;6928;50.546;7.120;2023-03-11T14:18:34;5.86;52.08
13713;DHT22;6928;50.546;7.120;2023-03-11T14:21:06;6.22;52.38
13713;DHT22;6928;50.546;7.120;2023-03-11T14:23:41;6.16;51.60
13713;DHT22;6928;50.546;7.120;2023-03-11T14:26:13;6.44;50.68
13713;DHT22;6928;50.546;7.120;2023-03-11T14:28:43;6.10;50.30
13713;DHT22;6928;50.546;7.120;2023-03-11T14:31:23;5.83;51.24
13713;DHT22;6928;50.546;7.120;2023-03-11T14:33:55;5.73;51.26
13713;DHT22;6928;50.546;7.120;2023-03-11T14:36:24;5.78;51.36
13713;DHT22;6928;50.546;7.120;2023-03-11T14:38:51;5.86;50.52
13713;DHT22;6928;50.546;7.120;2023-03-11T14:41:18;5.69;50.75
13713;DHT22;6928;50.546;7.120;2023-03-11T14:43:48;5.90;51.44
13713;DHT22;6928;50.546;7.120;2023-03-11T14:46:21;6.13;50.32
13713;DHT22;6928;50.546;7.120;2023-03-11T14:48:49;6.55;50.52
13713;DHT22;6928;50.546;7.120;2023-03-11T14:51:21;6.37;51.60
13713;DHT22;6928;50.546;7.120;2023-03-11T14:54:01;6.18;51.44
13713;DHT22;6928;50.546;7.120;2023-03-11T14:56:29;5.76;51.39
13713;DHT22;6928;50.546;7.120;2023-03-11T14:59:01;6.06;52.12
13713;DHT22;6928;50.546;7.120;2023-03-11T15:01:33;5.78;51.69
13713;DHT22;6928;50.546;7.120;2023-03-11T15:04:05;5.91;51.87
13713;DHT22;6928;50.546;7.120;2023-03-11T15:06:35;6.13;51.64
13713;DHT22;6928;50.546;7.120;2023-03-11T15:09:09;5.89;50.95
13713;DHT22;6928;50.546;7.120;2023-03-11T15:11:48;5.94;51.45
13713;DHT22;6928;50.546;7.120;2023-03-11T15:14:21;6.44;51.81
13713;DHT22;6928;50.546;7.120;2023-03-11T15:16:48;5.85;50.80
13713;DHT22;6928;50.546;7.120;2023-03-11T15:19:31;6.22;51.90
13713;DHT22;6928;50.546;7.120;2023-03-11T15:22:19;6.80;50.54
13713;DHT22;6928;50.546;7.120;2023-03-11T15:24:51;5.82;50.71
13713;DHT22;6928;50.546;7.120;2023-03-11T15:27:28;6.04;51.94
13713;DHT22;6928;50.546;7.120;2023-03-11T15:29:56;6.11;52.08
13713;DHT22;6928;50.546;7.120;2023-03-11T15:32:38;5.99;51.22
13713;DHT22;6928;50.546;7.120;2023-03-11T15:35:16;6.16;51.87
13713;DHT22;6928;50.546;7.120;2023-03-11T15:37:45;5.82;51.59
13713;DHT22;6928;50.546;7.120;2023-03-11T15:40:22;5.87;51.46
13713;DHT22;6928;50.546;7.120;2023-03-11T15:43:20;5.87;50.68
13713;DHT22;6928;50.546;7.120;2023-03-11T15:45:49;5.80;51.13
13713;DHT22;6928;50.546;7.120;2023-03-11T15:48:18;5.70;50.97
13713;DHT22;6928;50.546;7.120;2023-03-11T15:50:47;5.73;50.89
13713;DHT22;6928;50.546;7.120;2023-03-11T15:53:15;5.76;50.90
13713;DHT22;6928;50.546;7.120;2023-03-11T15:55:43;5.93;50.75
13713;DHT22;6928;50.546;7.120;2023-03-11T15:58:13;6.03;51.89
13713;DHT22;6928;50.546;7.120;2023-03-11T16:00:47;5.93;51.55
13713;DHT22;6928;50.546;7.120;2023-03-11T16:03:14;5.93;51.56
13713;DHT22;6928;50.546;7.120;2023-03-11T16:05:42;5.79;51.35
13713;DHT22;6928;50.546;7.120;2023-03-11T16:08:09;5.82;51.61
13713;DHT22;6928;50.546;7.120;2023-03-11T16:10:36;5.90;51.47
13713;DHT22;6928;50.546;7.120;2023-03-11T16:13:05;5.87;51.76
13713;DHT22;6928;50.546;7.120;2023-03-11T16:15:34;5.83;51.56
13713;DHT22;6928;50.546;7.120;2023-03-11T16:18:02;5.78;51.67
13713;DHT22;6928;50.546;7.120;2023-03-11T16:20:35;5.76;51.51
13713;DHT22;6928;50.546;7.120;2023-03-11T16:23:03;6.11;51.67
13713;DHT22;6928;50.546;7.120;2023-03-11T16:25:33;5.86;51.16
13713;DHT22;6928;50.546;7.120;2023-03-11T16:28:01;5.78;51.89
13713;DHT22;6928;50.546;7.120;2023-03-11T16:30:32;5.80;51.94